Airfield :
LOGIN :

Register | Disclaimer

   EN    FR    IT 

 










Legend :    VFR   Marginal VFR   IFR   Intensive IFR   Very Intensive IFR
Visi :
Ceiling :
>= 8 km
>= 3000ft
5 to 8 km
1000 to 3000 ft
1500m to 5 km
500 to 1000 ft
800 to 1500m
200 to 500 ft
< 800m
< 200 ft
Symbols :   Thunderstorms  Fog  Heavy snow  Heavy precipitations  Wind > 20 kt
SIGMETs :     Misc.  Thunderstorms  Icing  Turbulence  Mountain Waves  Volcanic Ashes






- Airport Elevation : 538 ft
- IATA code : TNF


LFPN - Toussus Le Noble

CURRENT METAR :
  • 291130Z AUTO 20014KT 9999 -RA OVC005 10/09 Q1009 NOSIG

EXPIRED METARs :
  • 291100Z AUTO 19012KT 9999 -RA OVC005 09/09 Q1010 TEMPO 4000 -DZ
  • 291030Z AUTO 19012KT 8000 -RA OVC004 09/09 Q1010 TEMPO 4000 -DZ BECMG BKN008
  • 291000Z AUTO 19012KT 9000 OVC003 09/09 Q1010 TEMPO 4000 -DZ
  • 290930Z AUTO 19010KT 3800 -DZ BR OVC004 08/08 Q1011 NOSIG
  • 290900Z AUTO 19011KT 5000 -DZ BR OVC004 08/08 Q1011 NOSIG
  • 290830Z AUTO 19010KT 7000 -RA OVC003 08/08 Q1011 TEMPO 2500 -DZRA
  • 290800Z AUTO 19011KT 5000 -DZ BR OVC003 08/08 Q1012 TEMPO 2500 -DZRA
  • 290730Z AUTO 19012KT 8000 OVC003 08/08 Q1012 TEMPO 2500 -DZRA

TAF TAF LFPN
Valid from the 29 at 12:00 until the 29 at 21:00 UTC


291100Z 2912/2921 19010KT 8000 OVC006
PROB30
TEMPO 2912/2913 4000 -RA BKN004
PROB40
TEMPO 2916/2921 18010G20KT 4000 -RA BKN004
ATIS : +33 1 39 56 54 70



MET'MAP, your aeronautical weather chart ! - Copyright ORBIFLY December 2007 - Disclaimer

ORBIFLY MET'MAP TEAM :

Programming & Development : Alexandra Zaïnal
Original concept : Baudouin d'Aumeries
Technical & hardware support : Manuel Goepfert
Assistance : Marc-Olivier Méhu




SOURCES & CREDITS :

   NOAA